Time;durP1;ratioP1;P1;durP2;ratioP2;P2;SDS_P1;SDS_P2;PMS_P1;PMS_P2;Temp;Humidity;BMP_temperature;BMP_pressure;BME280_temperature;BME280_humidity;BME280_pressure;Samples;Min_cycle;Max_cycle;Signal;HPM_P1;HPM_P2
2019/09/19 00:02:53;;;;;;;1.65;1.40;;;;;;;20.94;50.78;101559.06;;;;-51
2019/09/19 00:05:53;;;;;;;1.95;1.40;;;;;;;20.95;50.72;101562.10;;;;-51
2019/09/19 00:08:53;;;;;;;2.09;1.42;;;;;;;20.94;50.76;101560.81;;;;-51
2019/09/19 00:11:53;;;;;;;1.66;1.41;;;;;;;20.94;50.77;101561.48;;;;-51
2019/09/19 00:14:53;;;;;;;1.67;1.44;;;;;;;20.93;50.80;101561.36;;;;-50
2019/09/19 00:17:53;;;;;;;1.38;1.27;;;;;;;20.93;50.81;101562.36;;;;-51
2019/09/19 00:20:53;;;;;;;1.95;1.40;;;;;;;20.92;50.81;101559.45;;;;-51
2019/09/19 00:23:53;;;;;;;1.97;1.41;;;;;;;20.93;50.77;101565.11;;;;-51
2019/09/19 00:26:53;;;;;;;1.72;1.41;;;;;;;20.92;50.81;101567.08;;;;-52
2019/09/19 00:29:53;;;;;;;1.76;1.47;;;;;;;20.92;50.81;101562.09;;;;-51
2019/09/19 00:32:53;;;;;;;2.07;1.51;;;;;;;20.92;50.82;101564.38;;;;-51
2019/09/19 00:35:53;;;;;;;1.91;1.42;;;;;;;20.92;50.80;101572.94;;;;-46
2019/09/19 00:38:53;;;;;;;1.42;1.28;;;;;;;20.91;50.82;101565.50;;;;-46
2019/09/19 00:41:53;;;;;;;1.50;1.40;;;;;;;20.91;50.82;101564.09;;;;-46
2019/09/19 00:44:53;;;;;;;2.65;1.47;;;;;;;20.91;50.84;101562.81;;;;-46
2019/09/19 00:47:53;;;;;;;2.01;1.40;;;;;;;20.90;50.82;101566.89;;;;-45
2019/09/19 00:50:53;;;;;;;1.61;1.35;;;;;;;20.90;50.86;101565.00;;;;-46
2019/09/19 00:53:53;;;;;;;1.76;1.50;;;;;;;20.89;50.87;101571.88;;;;-46
2019/09/19 00:56:53;;;;;;;1.90;1.41;;;;;;;20.89;50.81;101574.95;;;;-46
2019/09/19 00:59:53;;;;;;;2.17;1.40;;;;;;;20.89;50.84;101580.33;;;;-46
2019/09/19 01:02:53;;;;;;;1.79;1.45;;;;;;;20.89;50.84;101579.22;;;;-45
2019/09/19 01:05:53;;;;;;;1.83;1.31;;;;;;;20.88;50.82;101578.03;;;;-46
2019/09/19 01:08:53;;;;;;;2.10;1.38;;;;;;;20.88;50.84;101580.00;;;;-46
2019/09/19 01:11:53;;;;;;;2.13;1.30;;;;;;;20.87;50.86;101579.66;;;;-46
2019/09/19 01:14:53;;;;;;;1.67;1.47;;;;;;;20.87;50.88;101579.66;;;;-46
2019/09/19 01:17:53;;;;;;;1.99;1.51;;;;;;;20.87;50.88;101575.02;;;;-45
2019/09/19 01:20:53;;;;;;;1.61;1.40;;;;;;;20.86;50.89;101579.70;;;;-46
2019/09/19 01:23:53;;;;;;;1.41;1.31;;;;;;;20.86;50.88;101576.86;;;;-46
2019/09/19 01:26:53;;;;;;;1.52;1.40;;;;;;;20.85;50.89;101579.81;;;;-46
2019/09/19 01:29:53;;;;;;;1.68;1.52;;;;;;;20.85;50.86;101580.84;;;;-46
2019/09/19 01:32:53;;;;;;;1.89;1.43;;;;;;;20.85;50.87;101588.38;;;;-48
2019/09/19 01:35:53;;;;;;;1.77;1.40;;;;;;;20.86;50.87;101591.08;;;;-47
2019/09/19 01:38:53;;;;;;;3.07;1.50;;;;;;;20.85;50.91;101586.21;;;;-46
2019/09/19 01:41:53;;;;;;;1.77;1.51;;;;;;;20.85;50.90;101590.75;;;;-46
2019/09/19 01:44:53;;;;;;;1.95;1.29;;;;;;;20.84;50.89;101592.98;;;;-46
2019/09/19 01:47:53;;;;;;;1.95;1.36;;;;;;;20.84;50.87;101587.10;;;;-46
2019/09/19 01:50:53;;;;;;;1.77;1.32;;;;;;;20.84;50.86;101588.67;;;;-46
2019/09/19 01:53:53;;;;;;;1.94;1.38;;;;;;;20.83;50.89;101584.91;;;;-46
2019/09/19 01:56:53;;;;;;;1.77;1.42;;;;;;;20.83;50.89;101588.49;;;;-46
2019/09/19 01:59:53;;;;;;;2.08;1.31;;;;;;;20.83;50.87;101589.90;;;;-45
2019/09/19 02:02:53;;;;;;;1.63;1.40;;;;;;;20.82;50.87;101589.89;;;;-45
2019/09/19 02:05:53;;;;;;;2.16;1.41;;;;;;;20.82;50.85;101587.77;;;;-46
2019/09/19 02:08:53;;;;;;;2.01;1.40;;;;;;;20.82;50.86;101588.00;;;;-47
2019/09/19 02:11:53;;;;;;;1.87;1.43;;;;;;;20.82;50.88;101588.89;;;;-46
2019/09/19 02:14:53;;;;;;;1.51;1.36;;;;;;;20.81;50.88;101591.51;;;;-46
2019/09/19 02:17:53;;;;;;;1.49;1.37;;;;;;;20.80;50.89;101588.55;;;;-46
2019/09/19 02:20:53;;;;;;;1.59;1.41;;;;;;;20.81;50.95;101588.67;;;;-46
2019/09/19 02:23:53;;;;;;;1.47;1.37;;;;;;;20.81;50.91;101593.48;;;;-46
2019/09/19 02:26:53;;;;;;;1.55;1.30;;;;;;;20.80;50.92;101589.08;;;;-46
2019/09/19 02:29:53;;;;;;;1.74;1.41;;;;;;;20.80;50.93;101589.00;;;;-46
2019/09/19 02:32:53;;;;;;;1.41;1.31;;;;;;;20.79;50.93;101589.52;;;;-46
2019/09/19 02:35:53;;;;;;;1.58;1.38;;;;;;;20.79;50.91;101589.68;;;;-46
2019/09/19 02:38:53;;;;;;;1.77;1.35;;;;;;;20.80;50.91;101591.58;;;;-45
2019/09/19 02:41:53;;;;;;;1.69;1.40;;;;;;;20.79;50.89;101593.44;;;;-46
2019/09/19 02:44:53;;;;;;;1.41;1.31;;;;;;;20.79;50.92;101595.17;;;;-46
2019/09/19 02:47:53;;;;;;;1.51;1.41;;;;;;;20.79;50.90;101591.75;;;;-46
2019/09/19 02:50:53;;;;;;;1.57;1.40;;;;;;;20.78;50.89;101587.84;;;;-46
2019/09/19 02:53:53;;;;;;;1.37;1.26;;;;;;;20.77;50.92;101588.23;;;;-46
2019/09/19 02:57:11;;;;;;;1.44;1.34;;;;;;;20.77;50.90;101581.51;;;;-46
2019/09/19 02:59:53;;;;;;;1.41;1.28;;;;;;;20.77;50.91;101584.92;;;;-46
2019/09/19 03:02:53;;;;;;;1.61;1.39;;;;;;;20.76;50.90;101582.96;;;;-46
2019/09/19 03:05:53;;;;;;;1.73;1.38;;;;;;;20.77;50.88;101584.25;;;;-46
2019/09/19 03:08:53;;;;;;;2.47;1.55;;;;;;;20.76;50.92;101587.33;;;;-46
2019/09/19 03:11:53;;;;;;;1.43;1.24;;;;;;;20.75;50.91;101585.76;;;;-46
2019/09/19 03:14:53;;;;;;;1.37;1.26;;;;;;;20.76;50.88;101586.37;;;;-46
2019/09/19 03:17:53;;;;;;;1.39;1.27;;;;;;;20.76;50.92;101588.29;;;;-46
2019/09/19 03:20:53;;;;;;;1.33;1.23;;;;;;;20.76;50.94;101587.11;;;;-46
2019/09/19 03:23:53;;;;;;;1.78;1.50;;;;;;;20.76;50.86;101589.13;;;;-46
2019/09/19 03:26:53;;;;;;;1.57;1.41;;;;;;;20.75;50.94;101591.13;;;;-46
2019/09/19 03:29:53;;;;;;;1.75;1.37;;;;;;;20.74;50.90;101588.28;;;;-45
2019/09/19 03:32:53;;;;;;;1.63;1.41;;;;;;;20.74;50.91;101590.02;;;;-46
2019/09/19 03:35:53;;;;;;;1.82;1.40;;;;;;;20.74;50.88;101592.80;;;;-46
2019/09/19 03:38:53;;;;;;;2.08;1.49;;;;;;;20.74;50.91;101586.76;;;;-46
2019/09/19 03:41:53;;;;;;;1.80;1.41;;;;;;;20.74;50.92;101587.55;;;;-46
2019/09/19 03:44:53;;;;;;;1.53;1.39;;;;;;;20.74;50.93;101588.10;;;;-46
2019/09/19 03:47:53;;;;;;;1.40;1.30;;;;;;;20.73;50.87;101584.02;;;;-45
2019/09/19 03:50:53;;;;;;;1.47;1.37;;;;;;;20.73;50.94;101579.39;;;;-46
2019/09/19 03:53:53;;;;;;;1.50;1.40;;;;;;;20.72;50.94;101583.58;;;;-46
2019/09/19 03:56:53;;;;;;;1.43;1.33;;;;;;;20.73;50.89;101585.52;;;;-46
2019/09/19 03:59:53;;;;;;;1.71;1.38;;;;;;;20.73;50.92;101595.43;;;;-46
2019/09/19 04:02:53;;;;;;;1.85;1.49;;;;;;;20.72;50.91;101596.88;;;;-45
2019/09/19 04:05:53;;;;;;;1.57;1.47;;;;;;;20.72;50.90;101598.41;;;;-46
2019/09/19 04:08:53;;;;;;;1.50;1.40;;;;;;;20.72;50.89;101596.05;;;;-46
2019/09/19 04:11:53;;;;;;;1.39;1.29;;;;;;;20.71;50.88;101599.97;;;;-46
2019/09/19 04:14:53;;;;;;;1.43;1.32;;;;;;;20.71;50.91;101604.82;;;;-46
2019/09/19 04:17:53;;;;;;;1.45;1.28;;;;;;;20.71;50.89;101603.14;;;;-46
2019/09/19 04:20:53;;;;;;;2.06;1.57;;;;;;;20.71;50.88;101603.37;;;;-45
2019/09/19 04:23:53;;;;;;;2.12;1.35;;;;;;;20.71;50.88;101602.53;;;;-45
2019/09/19 04:26:53;;;;;;;1.86;1.47;;;;;;;20.71;50.97;101607.34;;;;-46
2019/09/19 04:29:53;;;;;;;1.37;1.27;;;;;;;20.69;50.89;101606.91;;;;-45
2019/09/19 04:32:53;;;;;;;1.51;1.41;;;;;;;20.69;50.89;101608.58;;;;-46
2019/09/19 04:35:53;;;;;;;1.63;1.40;;;;;;;20.69;50.87;101606.95;;;;-46
2019/09/19 04:38:53;;;;;;;2.68;1.39;;;;;;;20.69;50.87;101608.98;;;;-46
2019/09/19 04:41:53;;;;;;;1.71;1.37;;;;;;;20.69;50.90;101615.84;;;;-46
2019/09/19 04:44:53;;;;;;;1.98;1.43;;;;;;;20.68;50.90;101616.23;;;;-46
2019/09/19 04:47:53;;;;;;;1.67;1.37;;;;;;;20.68;50.87;101623.45;;;;-46
2019/09/19 04:50:53;;;;;;;1.71;1.51;;;;;;;20.68;50.85;101625.13;;;;-46
2019/09/19 04:53:53;;;;;;;1.70;1.42;;;;;;;20.67;50.90;101633.54;;;;-45
2019/09/19 04:56:53;;;;;;;1.52;1.35;;;;;;;20.67;50.83;101635.14;;;;-46
2019/09/19 04:59:53;;;;;;;1.70;1.38;;;;;;;20.67;50.89;101642.44;;;;-46
2019/09/19 05:02:53;;;;;;;1.41;1.31;;;;;;;20.67;50.86;101652.78;;;;-46
2019/09/19 05:05:53;;;;;;;1.58;1.37;;;;;;;20.67;50.92;101651.16;;;;-47
2019/09/19 05:08:53;;;;;;;4.43;1.95;;;;;;;20.54;43.51;101660.39;;;;-47
2019/09/19 05:11:53;;;;;;;7.83;2.80;;;;;;;19.19;39.89;101670.05;;;;-52
2019/09/19 05:14:53;;;;;;;5.85;2.83;;;;;;;18.60;40.03;101677.00;;;;-47
2019/09/19 05:17:53;;;;;;;5.95;2.95;;;;;;;18.15;39.73;101694.19;;;;-46
2019/09/19 05:20:53;;;;;;;9.17;3.01;;;;;;;18.68;41.73;101687.41;;;;-46
2019/09/19 05:23:53;;;;;;;4.87;2.67;;;;;;;18.96;42.66;101684.22;;;;-46
2019/09/19 05:26:53;;;;;;;5.11;2.70;;;;;;;19.18;44.13;101682.31;;;;-46
2019/09/19 05:29:53;;;;;;;5.01;2.53;;;;;;;19.33;45.17;101682.24;;;;-46
2019/09/19 05:32:53;;;;;;;3.77;2.38;;;;;;;19.45;45.57;101679.41;;;;-46
2019/09/19 05:35:53;;;;;;;5.35;2.45;;;;;;;19.56;45.71;101680.50;;;;-46
2019/09/19 05:38:53;;;;;;;5.45;2.72;;;;;;;19.64;45.94;101682.83;;;;-46
2019/09/19 05:41:53;;;;;;;5.03;2.45;;;;;;;19.70;46.14;101680.44;;;;-46
2019/09/19 05:44:53;;;;;;;4.41;2.40;;;;;;;19.75;46.46;101680.63;;;;-47
2019/09/19 05:47:53;;;;;;;4.73;2.55;;;;;;;19.80;46.55;101692.80;;;;-46
2019/09/19 05:50:53;;;;;;;6.47;2.54;;;;;;;19.82;46.66;101694.89;;;;-46
2019/09/19 05:53:53;;;;;;;4.34;2.51;;;;;;;19.86;46.92;101700.05;;;;-46
2019/09/19 05:56:53;;;;;;;4.59;2.37;;;;;;;19.88;47.08;101706.67;;;;-46
2019/09/19 05:59:53;;;;;;;4.01;2.30;;;;;;;19.91;47.22;101704.46;;;;-47
2019/09/19 06:02:53;;;;;;;4.15;2.30;;;;;;;19.92;47.36;101704.86;;;;-46
2019/09/19 06:05:53;;;;;;;3.63;2.33;;;;;;;19.94;47.45;101701.02;;;;-48
2019/09/19 06:08:53;;;;;;;3.87;2.39;;;;;;;19.94;47.56;101704.20;;;;-47
2019/09/19 06:11:53;;;;;;;3.22;2.08;;;;;;;19.96;47.63;101707.34;;;;-47
2019/09/19 06:14:53;;;;;;;3.54;2.45;;;;;;;19.97;47.77;101710.08;;;;-47
2019/09/19 06:17:53;;;;;;;4.70;2.50;;;;;;;19.98;47.89;101713.26;;;;-47
2019/09/19 06:20:53;;;;;;;4.00;2.31;;;;;;;19.99;47.93;101716.23;;;;-47
2019/09/19 06:23:53;;;;;;;3.55;2.35;;;;;;;20.01;48.05;101717.25;;;;-47
2019/09/19 06:26:53;;;;;;;4.28;2.35;;;;;;;20.01;48.16;101715.96;;;;-47
2019/09/19 06:29:53;;;;;;;3.37;2.25;;;;;;;20.02;48.21;101712.89;;;;-49
2019/09/19 06:32:53;;;;;;;4.39;2.24;;;;;;;20.03;48.30;101716.31;;;;-47
2019/09/19 06:35:53;;;;;;;3.53;1.89;;;;;;;20.03;48.36;101718.27;;;;-47
2019/09/19 06:38:53;;;;;;;3.51;2.14;;;;;;;20.04;48.45;101721.13;;;;-47
2019/09/19 06:41:53;;;;;;;4.07;2.22;;;;;;;20.04;48.50;101722.86;;;;-47
2019/09/19 06:44:53;;;;;;;2.75;2.10;;;;;;;20.05;48.57;101733.20;;;;-47
2019/09/19 06:47:53;;;;;;;3.10;2.10;;;;;;;20.05;48.61;101732.59;;;;-47
2019/09/19 06:50:53;;;;;;;2.99;2.17;;;;;;;20.05;48.70;101733.55;;;;-47
2019/09/19 06:53:53;;;;;;;3.13;2.31;;;;;;;20.07;48.72;101738.26;;;;-49
2019/09/19 06:56:53;;;;;;;2.73;2.02;;;;;;;20.07;48.80;101744.23;;;;-48
2019/09/19 07:01:53;;;;;;;3.33;2.31;;;;;;;20.08;48.88;101753.52;;;;-49
2019/09/19 07:04:53;;;;;;;5.20;2.05;;;;;;;20.09;47.83;101756.67;;;;-49
2019/09/19 07:07:53;;;;;;;5.29;2.40;;;;;;;19.73;44.42;101760.47;;;;-52
2019/09/19 07:10:53;;;;;;;7.97;2.78;;;;;;;19.69;44.55;101761.50;;;;-50
2019/09/19 07:13:53;;;;;;;6.61;2.75;;;;;;;19.69;44.85;101764.63;;;;-50
2019/09/19 07:16:53;;;;;;;6.91;2.33;;;;;;;19.68;44.85;101771.71;;;;-50
2019/09/19 07:19:53;;;;;;;8.36;2.61;;;;;;;19.67;44.64;101772.60;;;;-50
2019/09/19 07:22:53;;;;;;;6.12;2.81;;;;;;;19.63;44.62;101775.19;;;;-50
2019/09/19 07:25:53;;;;;;;7.89;2.79;;;;;;;19.63;44.57;101778.81;;;;-48
2019/09/19 07:28:53;;;;;;;7.09;2.78;;;;;;;19.62;44.53;101783.22;;;;-49
2019/09/19 07:31:53;;;;;;;6.21;2.82;;;;;;;19.60;44.32;101780.19;;;;-48
2019/09/19 07:34:53;;;;;;;7.49;2.79;;;;;;;19.58;44.32;101778.59;;;;-49
2019/09/19 07:37:53;;;;;;;6.79;2.79;;;;;;;19.56;44.23;101778.86;;;;-49
2019/09/19 07:40:53;;;;;;;8.79;3.10;;;;;;;19.56;44.27;101783.31;;;;-48
2019/09/19 07:43:53;;;;;;;6.18;2.78;;;;;;;19.55;44.24;101778.97;;;;-49
2019/09/19 07:46:53;;;;;;;8.89;2.68;;;;;;;19.54;44.34;101779.68;;;;-49
2019/09/19 07:49:53;;;;;;;4.77;2.59;;;;;;;19.53;44.25;101783.45;;;;-49
2019/09/19 07:52:53;;;;;;;7.25;2.73;;;;;;;19.54;44.17;101788.44;;;;-49
2019/09/19 07:55:53;;;;;;;7.44;2.90;;;;;;;19.53;44.15;101796.42;;;;-50
2019/09/19 07:58:53;;;;;;;8.69;2.79;;;;;;;19.52;44.14;101799.37;;;;-49
2019/09/19 08:01:53;;;;;;;5.35;2.30;;;;;;;19.52;44.03;101794.47;;;;-50
2019/09/19 08:04:53;;;;;;;6.07;2.51;;;;;;;19.51;43.97;101797.30;;;;-57
2019/09/19 08:07:53;;;;;;;4.85;2.35;;;;;;;19.51;43.88;101801.59;;;;-58
2019/09/19 08:10:53;;;;;;;5.89;2.46;;;;;;;19.51;43.96;101804.95;;;;-58
2019/09/19 08:13:54;;;;;;;5.63;2.49;;;;;;;19.51;44.02;101809.47;;;;-50
2019/09/19 08:16:53;;;;;;;6.42;2.43;;;;;;;19.47;43.79;101814.00;;;;-50
2019/09/19 08:20:53;;;;;;;5.43;2.21;;;;;;;19.46;43.70;101817.86;;;;-51
2019/09/19 08:23:53;;;;;;;4.97;2.08;;;;;;;19.46;43.47;101819.13;;;;-50
2019/09/19 08:26:53;;;;;;;6.70;2.12;;;;;;;19.44;43.46;101817.16;;;;-50
2019/09/19 08:29:53;;;;;;;5.17;2.04;;;;;;;19.44;43.51;101814.55;;;;-50
2019/09/19 08:32:53;;;;;;;3.67;1.73;;;;;;;19.46;43.49;101815.33;;;;-50
2019/09/19 08:35:53;;;;;;;4.59;1.95;;;;;;;19.46;43.62;101816.11;;;;-50
2019/09/19 08:38:53;;;;;;;4.09;1.75;;;;;;;19.47;43.27;101817.64;;;;-50
2019/09/19 08:41:53;;;;;;;4.21;2.01;;;;;;;19.47;43.54;101818.94;;;;-51
2019/09/19 08:44:53;;;;;;;4.25;1.77;;;;;;;19.48;43.39;101811.22;;;;-48
2019/09/19 08:47:53;;;;;;;3.21;1.73;;;;;;;19.53;43.74;101821.22;;;;-49
2019/09/19 08:50:53;;;;;;;5.75;1.99;;;;;;;19.50;43.42;101816.49;;;;-49
2019/09/19 08:53:53;;;;;;;7.21;1.73;;;;;;;19.54;43.65;101814.38;;;;-50
2019/09/19 08:56:53;;;;;;;8.21;2.15;;;;;;;19.58;44.18;101806.59;;;;-51
2019/09/19 08:59:53;;;;;;;8.51;2.15;;;;;;;19.69;44.88;101802.28;;;;-50
2019/09/19 09:02:53;;;;;;;5.84;1.83;;;;;;;19.78;45.38;101807.47;;;;-49
2019/09/19 09:05:53;;;;;;;6.13;2.07;;;;;;;19.84;45.59;101799.36;;;;-50
2019/09/19 09:08:53;;;;;;;6.75;1.85;;;;;;;19.89;45.72;101794.15;;;;-51
2019/09/19 09:11:53;;;;;;;4.56;1.93;;;;;;;19.93;45.81;101800.10;;;;-51
2019/09/19 09:14:53;;;;;;;7.58;2.02;;;;;;;19.97;46.08;101796.28;;;;-49
2019/09/19 09:17:53;;;;;;;6.55;2.10;;;;;;;19.97;46.25;101798.80;;;;-48
2019/09/19 09:20:53;;;;;;;9.55;2.13;;;;;;;20.00;46.31;101800.48;;;;-50
2019/09/19 09:23:53;;;;;;;4.13;2.06;;;;;;;20.04;46.38;101805.48;;;;-50
2019/09/19 09:26:53;;;;;;;7.50;2.00;;;;;;;20.05;46.39;101803.49;;;;-50
2019/09/19 09:29:53;;;;;;;7.63;1.83;;;;;;;20.08;46.29;101810.61;;;;-49
2019/09/19 09:32:53;;;;;;;4.30;1.90;;;;;;;20.10;46.39;101809.22;;;;-47
2019/09/19 09:35:53;;;;;;;5.83;1.81;;;;;;;20.13;46.43;101808.34;;;;-47
2019/09/19 09:38:53;;;;;;;3.49;1.92;;;;;;;20.15;46.54;101808.80;;;;-46
2019/09/19 09:41:53;;;;;;;4.80;1.99;;;;;;;20.16;46.58;101800.56;;;;-59
2019/09/19 09:47:53;;;;;;;3.67;1.80;;;;;;;20.20;46.73;101797.11;;;;-55
2019/09/19 09:50:53;;;;;;;4.65;1.81;;;;;;;20.22;46.79;101798.98;;;;-56
2019/09/19 09:53:53;;;;;;;8.40;1.89;;;;;;;20.23;46.81;101795.86;;;;-63
2019/09/19 09:56:53;;;;;;;3.89;1.93;;;;;;;20.24;46.80;101785.91;;;;-56
2019/09/19 09:59:53;;;;;;;6.17;1.89;;;;;;;20.26;46.88;101788.50;;;;-51
2019/09/19 10:02:53;;;;;;;3.13;1.74;;;;;;;20.27;46.88;101784.36;;;;-51
2019/09/19 10:05:53;;;;;;;4.14;1.61;;;;;;;20.26;46.90;101786.55;;;;-51
2019/09/19 10:08:53;;;;;;;9.17;2.13;;;;;;;20.29;47.25;101789.47;;;;-51
2019/09/19 10:11:53;;;;;;;3.49;1.76;;;;;;;20.28;47.08;101786.66;;;;-50
2019/09/19 10:14:53;;;;;;;4.97;1.80;;;;;;;20.29;47.14;101789.58;;;;-47
2019/09/19 10:17:53;;;;;;;9.90;1.79;;;;;;;20.29;47.14;101786.06;;;;-49
2019/09/19 10:20:53;;;;;;;3.44;1.75;;;;;;;20.30;47.20;101779.23;;;;-49
2019/09/19 10:23:53;;;;;;;4.53;1.83;;;;;;;20.32;47.31;101785.63;;;;-50
2019/09/19 10:26:53;;;;;;;6.61;1.95;;;;;;;20.33;47.47;101776.63;;;;-47
2019/09/19 10:29:53;;;;;;;5.21;1.91;;;;;;;20.33;47.52;101770.83;;;;-47
2019/09/19 10:32:53;;;;;;;3.63;1.70;;;;;;;20.35;47.52;101774.14;;;;-47
2019/09/19 10:35:53;;;;;;;4.63;1.91;;;;;;;20.36;47.40;101775.64;;;;-47
2019/09/19 10:38:53;;;;;;;3.63;1.79;;;;;;;20.38;47.48;101778.67;;;;-46
2019/09/19 10:41:53;;;;;;;5.24;1.67;;;;;;;20.40;47.44;101777.28;;;;-48
2019/09/19 10:44:53;;;;;;;3.43;1.45;;;;;;;20.41;47.52;101779.86;;;;-50
2019/09/19 10:47:53;;;;;;;3.71;1.71;;;;;;;20.42;47.53;101775.41;;;;-49
2019/09/19 10:50:53;;;;;;;4.28;1.67;;;;;;;20.41;47.54;101779.60;;;;-50
2019/09/19 10:53:53;;;;;;;4.39;1.60;;;;;;;20.42;47.49;101784.30;;;;-51
2019/09/19 10:56:53;;;;;;;2.72;1.63;;;;;;;20.43;47.39;101785.31;;;;-52
2019/09/19 10:59:53;;;;;;;2.25;1.43;;;;;;;20.43;47.46;101787.61;;;;-51
2019/09/19 11:02:53;;;;;;;3.33;1.60;;;;;;;20.43;47.48;101787.16;;;;-52
2019/09/19 11:05:53;;;;;;;2.17;1.38;;;;;;;20.41;47.48;101775.02;;;;-52
2019/09/19 11:08:53;;;;;;;3.71;1.55;;;;;;;20.41;47.50;101785.19;;;;-51
2019/09/19 11:11:53;;;;;;;3.18;1.50;;;;;;;20.41;47.46;101780.61;;;;-52
2019/09/19 11:14:53;;;;;;;3.33;1.53;;;;;;;20.41;47.50;101775.67;;;;-51
2019/09/19 11:17:53;;;;;;;2.81;1.57;;;;;;;20.41;47.45;101770.31;;;;-52
2019/09/19 11:20:53;;;;;;;2.39;1.60;;;;;;;20.40;47.39;101769.08;;;;-52
2019/09/19 11:23:53;;;;;;;5.55;1.73;;;;;;;20.41;47.47;101771.30;;;;-51
2019/09/19 11:26:53;;;;;;;2.85;1.65;;;;;;;20.41;47.46;101773.27;;;;-52
2019/09/19 11:29:53;;;;;;;2.82;1.57;;;;;;;20.42;47.38;101774.22;;;;-51
2019/09/19 11:32:53;;;;;;;2.91;1.50;;;;;;;20.42;47.40;101768.85;;;;-51
2019/09/19 11:35:53;;;;;;;1.83;1.51;;;;;;;20.41;47.48;101767.73;;;;-52
2019/09/19 11:38:53;;;;;;;2.60;1.52;;;;;;;20.42;47.44;101760.30;;;;-51
2019/09/19 11:41:53;;;;;;;2.03;1.41;;;;;;;20.41;47.48;101759.13;;;;-52
2019/09/19 11:44:53;;;;;;;2.77;1.47;;;;;;;20.41;47.48;101758.00;;;;-51
2019/09/19 11:47:53;;;;;;;2.95;1.40;;;;;;;20.41;47.50;101756.83;;;;-52
2019/09/19 11:50:53;;;;;;;3.29;1.79;;;;;;;20.41;47.42;101753.30;;;;-52
2019/09/19 11:53:53;;;;;;;3.38;1.57;;;;;;;20.42;47.45;101746.53;;;;-51
2019/09/19 11:56:53;;;;;;;2.60;1.40;;;;;;;20.43;47.65;101740.29;;;;-49
2019/09/19 11:59:53;;;;;;;2.93;1.40;;;;;;;20.47;47.36;101732.52;;;;-50
2019/09/19 12:02:53;;;;;;;8.23;1.80;;;;;;;20.49;47.42;101730.75;;;;-47
2019/09/19 12:05:53;;;;;;;3.01;1.43;;;;;;;20.49;47.30;101725.27;;;;-48
2019/09/19 12:08:53;;;;;;;5.26;1.56;;;;;;;20.52;47.38;101723.28;;;;-59
2019/09/19 12:11:53;;;;;;;2.89;1.53;;;;;;;20.53;47.39;101717.95;;;;-57
2019/09/19 12:14:53;;;;;;;2.88;1.61;;;;;;;20.55;47.46;101725.24;;;;-57
2019/09/19 12:17:53;;;;;;;3.65;1.41;;;;;;;20.56;47.44;101728.67;;;;-59
2019/09/19 12:20:53;;;;;;;3.23;1.51;;;;;;;20.58;47.42;101725.60;;;;-58
2019/09/19 12:23:53;;;;;;;4.96;1.57;;;;;;;20.59;47.39;101718.27;;;;-62
2019/09/19 12:26:53;;;;;;;3.34;1.55;;;;;;;20.60;47.54;101713.86;;;;-57
2019/09/19 12:29:53;;;;;;;4.55;1.60;;;;;;;20.58;47.68;101719.06;;;;-59
2019/09/19 12:32:53;;;;;;;5.01;1.60;;;;;;;20.58;47.51;101705.89;;;;-59
2019/09/19 12:35:53;;;;;;;4.47;1.73;;;;;;;20.58;47.49;101705.45;;;;-58
2019/09/19 12:38:53;;;;;;;2.69;1.44;;;;;;;20.56;47.53;101702.48;;;;-58
2019/09/19 12:41:53;;;;;;;3.44;1.61;;;;;;;20.56;47.56;101705.66;;;;-59
2019/09/19 12:44:53;;;;;;;4.63;1.52;;;;;;;20.56;47.69;101697.79;;;;-56
2019/09/19 12:47:53;;;;;;;2.42;1.43;;;;;;;20.57;47.68;101693.15;;;;-61
2019/09/19 12:50:53;;;;;;;4.51;1.68;;;;;;;20.59;47.77;101698.02;;;;-60
2019/09/19 12:53:53;;;;;;;3.19;1.32;;;;;;;20.59;47.76;101695.94;;;;-63
2019/09/19 12:58:53;;;;;;;2.37;1.48;;;;;;;20.61;47.90;101701.77;;;;-60
2019/09/19 13:01:53;;;;;;;4.41;1.36;;;;;;;20.61;47.95;101701.28;;;;-54
2019/09/19 13:04:53;;;;;;;3.76;1.33;;;;;;;20.63;48.06;101699.61;;;;-49
2019/09/19 13:07:55;;;;;;;3.90;1.41;;;;;;;20.63;48.08;101697.20;;;;-46
2019/09/19 13:10:53;;;;;;;2.71;1.33;;;;;;;20.65;48.11;101696.36;;;;-53
2019/09/19 13:13:53;;;;;;;3.71;1.43;;;;;;;20.65;47.97;101691.09;;;;-50
2019/09/19 13:16:53;;;;;;;3.74;1.49;;;;;;;20.67;48.01;101682.82;;;;-53
2019/09/19 13:20:53;;;;;;;2.11;1.30;;;;;;;20.68;47.97;101692.62;;;;-56
2019/09/19 13:23:53;;;;;;;1.89;1.34;;;;;;;20.69;48.01;101686.47;;;;-59
2019/09/19 13:26:53;;;;;;;2.57;1.40;;;;;;;20.69;48.12;101685.85;;;;-58
2019/09/19 13:29:53;;;;;;;2.67;1.34;;;;;;;20.70;48.13;101686.35;;;;-50
2019/09/19 13:32:53;;;;;;;1.99;1.43;;;;;;;20.72;48.16;101685.43;;;;-49
2019/09/19 13:35:53;;;;;;;2.43;1.53;;;;;;;20.73;48.14;101689.73;;;;-46
2019/09/19 13:38:53;;;;;;;3.46;1.41;;;;;;;20.74;48.23;101686.22;;;;-52
2019/09/19 13:41:53;;;;;;;3.13;1.50;;;;;;;20.72;48.19;101685.09;;;;-50
2019/09/19 13:44:53;;;;;;;3.87;1.41;;;;;;;20.72;48.14;101675.86;;;;-51
2019/09/19 13:47:53;;;;;;;2.89;1.49;;;;;;;20.72;48.10;101672.05;;;;-50
2019/09/19 13:50:53;;;;;;;3.29;1.36;;;;;;;20.72;48.11;101670.16;;;;-51
2019/09/19 13:53:53;;;;;;;4.29;1.53;;;;;;;20.72;48.11;101663.82;;;;-50
2019/09/19 13:56:53;;;;;;;2.74;1.40;;;;;;;20.71;48.09;101666.51;;;;-50
2019/09/19 13:59:53;;;;;;;2.58;1.41;;;;;;;20.71;48.05;101668.68;;;;-51
2019/09/19 14:02:53;;;;;;;1.85;1.37;;;;;;;20.71;47.94;101673.32;;;;-50
2019/09/19 14:05:53;;;;;;;1.79;1.37;;;;;;;20.70;48.06;101673.26;;;;-52
2019/09/19 14:08:53;;;;;;;1.98;1.33;;;;;;;20.70;47.93;101675.16;;;;-60
2019/09/19 14:11:53;;;;;;;3.70;1.43;;;;;;;20.68;47.95;101669.46;;;;-52
2019/09/19 14:14:53;;;;;;;1.51;1.33;;;;;;;20.69;47.91;101669.41;;;;-51
2019/09/19 14:17:53;;;;;;;1.58;1.30;;;;;;;20.68;47.97;101660.73;;;;-51
2019/09/19 14:20:53;;;;;;;3.42;1.44;;;;;;;20.68;48.05;101658.37;;;;-51
2019/09/19 14:23:53;;;;;;;2.47;1.39;;;;;;;20.68;48.07;101654.73;;;;-60
2019/09/19 14:26:53;;;;;;;2.69;1.35;;;;;;;20.67;48.05;101650.49;;;;-51
2019/09/19 14:29:53;;;;;;;3.45;1.63;;;;;;;20.67;48.02;101652.34;;;;-47
2019/09/19 14:32:53;;;;;;;2.77;1.38;;;;;;;20.68;47.97;101651.67;;;;-48
2019/09/19 14:35:53;;;;;;;1.61;1.20;;;;;;;20.68;47.95;101647.63;;;;-47
2019/09/19 14:38:53;;;;;;;2.25;1.38;;;;;;;20.69;48.02;101653.73;;;;-47
2019/09/19 14:41:53;;;;;;;1.46;1.30;;;;;;;20.67;48.08;101654.46;;;;-47
2019/09/19 14:44:53;;;;;;;2.89;1.23;;;;;;;20.67;48.06;101655.02;;;;-58
2019/09/19 14:47:53;;;;;;;4.29;1.50;;;;;;;20.67;48.08;101662.06;;;;-60
2019/09/19 14:50:53;;;;;;;1.54;1.40;;;;;;;20.66;48.05;101658.77;;;;-60
2019/09/19 14:53:53;;;;;;;4.28;1.54;;;;;;;20.65;48.20;101660.28;;;;-57
2019/09/19 14:56:53;;;;;;;4.35;1.39;;;;;;;20.66;48.23;101665.87;;;;-53
2019/09/19 14:59:53;;;;;;;2.01;1.28;;;;;;;20.67;48.31;101661.57;;;;-54
2019/09/19 15:02:53;;;;;;;4.33;1.31;;;;;;;20.70;48.23;101663.41;;;;-59
2019/09/19 15:05:53;;;;;;;4.24;1.39;;;;;;;20.72;48.14;101661.42;;;;-59
2019/09/19 15:08:53;;;;;;;2.79;1.39;;;;;;;20.73;48.30;101661.25;;;;-54
2019/09/19 15:11:53;;;;;;;4.02;1.41;;;;;;;20.73;48.28;101664.34;;;;-54
2019/09/19 15:14:53;;;;;;;3.23;1.50;;;;;;;20.75;48.31;101665.89;;;;-53
2019/09/19 15:17:53;;;;;;;2.14;1.39;;;;;;;20.75;48.40;101667.31;;;;-53
2019/09/19 15:20:53;;;;;;;1.63;1.29;;;;;;;20.77;48.32;101666.58;;;;-56
2019/09/19 15:23:53;;;;;;;2.57;1.45;;;;;;;20.77;48.29;101662.89;;;;-48
2019/09/19 15:26:53;;;;;;;2.99;1.43;;;;;;;20.78;48.32;101657.08;;;;-47
2019/09/19 15:29:53;;;;;;;2.80;1.41;;;;;;;20.79;48.42;101657.13;;;;-48
2019/09/19 15:32:53;;;;;;;1.96;1.55;;;;;;;20.79;48.48;101655.05;;;;-49
2019/09/19 15:35:53;;;;;;;3.71;1.60;;;;;;;20.79;48.58;101651.52;;;;-49
2019/09/19 15:38:53;;;;;;;4.03;1.30;;;;;;;20.79;48.46;101653.71;;;;-49
2019/09/19 15:41:53;;;;;;;2.04;1.46;;;;;;;20.81;48.40;101652.19;;;;-47
2019/09/19 15:44:53;;;;;;;2.01;1.46;;;;;;;20.82;48.42;101653.03;;;;-50
2019/09/19 15:47:53;;;;;;;3.43;1.40;;;;;;;20.83;48.50;101644.70;;;;-55
2019/09/19 15:50:53;;;;;;;1.95;1.41;;;;;;;20.84;48.55;101644.13;;;;-58
2019/09/19 15:53:53;;;;;;;2.13;1.47;;;;;;;20.84;48.56;101642.52;;;;-59
2019/09/19 15:56:53;;;;;;;2.95;1.43;;;;;;;20.86;48.51;101647.33;;;;-56
2019/09/19 15:59:53;;;;;;;2.09;1.39;;;;;;;20.86;48.58;101655.83;;;;-56
2019/09/19 16:02:53;;;;;;;2.18;1.41;;;;;;;20.87;48.47;101651.98;;;;-60
2019/09/19 16:05:53;;;;;;;2.91;1.33;;;;;;;20.87;48.45;101653.09;;;;-59
2019/09/19 16:08:53;;;;;;;2.89;1.40;;;;;;;20.88;48.49;101650.74;;;;-60
2019/09/19 16:11:53;;;;;;;2.23;1.40;;;;;;;20.88;48.51;101647.22;;;;-55
2019/09/19 16:14:53;;;;;;;3.96;1.50;;;;;;;20.88;48.47;101648.80;;;;-55
2019/09/19 16:17:53;;;;;;;3.26;1.61;;;;;;;20.90;48.55;101646.73;;;;-62
2019/09/19 16:20:53;;;;;;;3.59;1.55;;;;;;;20.91;48.45;101642.81;;;;-54
2019/09/19 16:23:53;;;;;;;3.85;1.49;;;;;;;20.91;48.43;101639.78;;;;-56
2019/09/19 16:26:53;;;;;;;3.77;1.59;;;;;;;20.90;48.45;101648.00;;;;-53
2019/09/19 16:29:53;;;;;;;5.29;1.68;;;;;;;20.90;48.48;101645.55;;;;-54
2019/09/19 16:32:53;;;;;;;4.51;1.63;;;;;;;20.91;48.51;101648.06;;;;-47
2019/09/19 16:35:53;;;;;;;2.37;1.41;;;;;;;20.90;48.55;101650.26;;;;-47
2019/09/19 16:38:53;;;;;;;3.73;1.51;;;;;;;20.92;48.50;101652.71;;;;-51
2019/09/19 16:41:53;;;;;;;5.85;1.69;;;;;;;20.92;48.51;101653.49;;;;-50
2019/09/19 16:44:53;;;;;;;4.42;1.69;;;;;;;20.92;48.58;101649.70;;;;-50
2019/09/19 16:47:53;;;;;;;5.51;1.49;;;;;;;20.93;48.62;101649.64;;;;-49
2019/09/19 16:50:53;;;;;;;4.73;1.47;;;;;;;20.93;48.48;101646.62;;;;-50
2019/09/19 16:53:53;;;;;;;2.81;1.49;;;;;;;20.94;48.47;101648.41;;;;-52